Time;durP1;ratioP1;P1;durP2;ratioP2;P2;SDS_P1;SDS_P2;PMS_P1;PMS_P2;Temp;Humidity;BMP_temperature;BMP_pressure;BME280_temperature;BME280_humidity;BME280_pressure;Samples;Min_cycle;Max_cycle;Signal;HPM_P1;HPM_P2
2021/10/15 00:01:15;;;;;;;;;;;;;;;7.88;68.96;99244.59;4892362;29;20380;-78
2021/10/15 00:03:40;;;;;;;;;;;;;;;7.83;69.35;99248.09;4891022;29;19975;-77
2021/10/15 00:06:06;;;;;;;;;;;;;;;7.81;69.30;99255.03;4904070;29;19938;-79
2021/10/15 00:08:32;;;;;;;;;;;;;;;7.81;69.58;99262.81;4906157;29;19923;-78
2021/10/15 00:10:57;;;;;;;;;;;;;;;7.71;69.19;99268.03;4894972;29;19923;-77
2021/10/15 00:13:23;;;;;;;;;;;;;;;7.64;69.30;99269.78;4872515;29;19963;-76
2021/10/15 00:15:48;;;;;;;;;;;;;;;7.57;69.51;99278.47;4884871;29;19930;-77
2021/10/15 00:18:14;;;;;;;;;;;;;;;7.53;69.56;99273.31;4894753;29;19930;-77
2021/10/15 00:20:39;;;;;;;;;;;;;;;7.50;69.73;99268.13;4897071;29;19993;-77
2021/10/15 00:23:05;;;;;;;;;;;;;;;7.49;69.77;99281.09;4896469;29;19923;-78
2021/10/15 00:25:30;;;;;;;;;;;;;;;7.51;69.80;99280.22;4863825;29;19929;-77
2021/10/15 00:27:56;;;;;;;;;;;;;;;7.54;69.80;99280.22;4886751;29;19979;-79
2021/10/15 00:30:21;;;;;;;;;;;;;;;7.53;69.73;99287.97;4878796;29;19975;-76
2021/10/15 00:32:47;;;;;;;;;;;;;;;7.46;69.60;99283.69;4896626;29;19947;-78
2021/10/15 00:35:12;;;;;;;;;;;;;;;7.46;69.76;99288.88;4894523;29;20364;-78
2021/10/15 00:37:38;;;;;;;;;;;;;;;7.47;69.91;99298.38;4896341;29;19928;-77
2021/10/15 00:40:04;;;;;;;;;;;;;;;7.53;69.97;99290.56;4881435;29;19923;-76
2021/10/15 00:42:29;;;;;;;;;;;;;;;7.50;69.50;99308.72;4897369;29;19943;-77
2021/10/15 00:44:55;;;;;;;;;;;;;;;7.42;69.43;99316.50;4898998;29;20009;-76
2021/10/15 00:47:20;;;;;;;;;;;;;;;7.43;70.00;99312.19;4895798;29;19931;-76
2021/10/15 00:49:46;;;;;;;;;;;;;;;7.41;69.66;99326.88;4848617;29;20067;-77
2021/10/15 00:52:12;;;;;;;;;;;;;;;7.40;70.01;99323.41;4863247;29;20387;-78
2021/10/15 00:54:39;;;;;;;;;;;;;;;7.39;70.11;99326.88;4878831;29;20384;-77
2021/10/15 00:57:06;;;;;;;;;;;;;;;7.43;69.58;99322.53;4896241;29;19924;-77
2021/10/15 00:59:31;;;;;;;;;;;;;;;7.42;69.72;99331.19;4895089;29;19931;-77
2021/10/15 01:01:57;;;;;;;;;;;;;;;7.36;69.33;99326.88;4895753;29;20001;-76
2021/10/15 01:04:23;;;;;;;;;;;;;;;7.31;69.41;99334.66;4878920;29;19975;-78
2021/10/15 01:06:49;;;;;;;;;;;;;;;7.30;69.94;99335.50;4848338;29;19931;-76
2021/10/15 01:09:15;;;;;;;;;;;;;;;7.33;70.04;99339.84;4887684;29;19924;-77
2021/10/15 01:11:40;;;;;;;;;;;;;;;7.36;70.02;99347.59;4897431;29;19928;-76
2021/10/15 01:14:06;;;;;;;;;;;;;;;7.26;69.81;99348.47;4906117;29;20744;-78
2021/10/15 01:16:33;;;;;;;;;;;;;;;7.20;69.75;99357.97;4894343;29;19983;-76
2021/10/15 01:19:00;;;;;;;;;;;;;;;7.21;69.54;99364.88;4879689;29;19950;-75
2021/10/15 01:21:26;;;;;;;;;;;;;;;7.16;69.85;99371.81;4879651;29;20495;-76
2021/10/15 01:23:52;;;;;;;;;;;;;;;7.13;69.72;99368.34;4865266;29;20384;-79
2021/10/15 01:26:18;;;;;;;;;;;;;;;7.07;69.44;99377.81;4895696;29;20074;-77
2021/10/15 01:28:44;;;;;;;;;;;;;;;7.00;69.83;99375.25;4878479;29;20348;-77
2021/10/15 01:31:09;;;;;;;;;;;;;;;6.98;70.33;99382.16;4899223;29;20264;-77
2021/10/15 01:33:35;;;;;;;;;;;;;;;6.99;70.11;99381.28;4900584;29;19971;-77
2021/10/15 01:36:01;;;;;;;;;;;;;;;7.02;70.09;99391.63;4897682;29;19936;-77
2021/10/15 01:38:27;;;;;;;;;;;;;;;7.00;69.77;99396.81;4886099;29;20402;-76
2021/10/15 01:40:54;;;;;;;;;;;;;;;6.97;70.28;99398.53;4878376;29;20371;-76
2021/10/15 01:43:22;;;;;;;;;;;;;;;7.00;70.24;99401.13;4878756;29;19934;-77
2021/10/15 01:46:06;;;;;;;;;;;;;;;7.04;70.44;99402.84;4879039;29;19924;-77
2021/10/15 01:48:45;;;;;;;;;;;;;;;7.01;69.94;99413.19;4878714;29;19923;-77
2021/10/15 01:52:04;;;;;;;;;;;;;;;6.91;69.92;99408.03;4877525;29;19924;-77
2021/10/15 01:54:30;;;;;;;;;;;;;;;6.93;69.99;99410.63;4894690;29;19971;-77
2021/10/15 01:56:55;;;;;;;;;;;;;;;6.91;69.69;99413.22;4899060;29;19923;-76
2021/10/15 01:59:22;;;;;;;;;;;;;;;6.90;69.87;99424.44;4897722;29;19924;-76
2021/10/15 02:01:47;;;;;;;;;;;;;;;6.85;70.04;99420.09;4889909;29;19924;-76
2021/10/15 02:04:13;;;;;;;;;;;;;;;6.79;69.59;99436.47;4873133;29;19930;-76
2021/10/15 02:06:38;;;;;;;;;;;;;;;6.71;69.86;99435.63;4881738;29;20287;-76
2021/10/15 02:09:05;;;;;;;;;;;;;;;6.68;69.76;99435.63;4879699;29;19955;-76
2021/10/15 02:12:06;;;;;;;;;;;;;;;;;;;;;
2021/10/15 02:14:35;;;;;;;;;;;;;;;6.63;69.87;99431.28;4890033;29;20026;-77
2021/10/15 02:17:01;;;;;;;;;;;;;;;6.63;69.42;99438.16;4862776;29;19977;-76
2021/10/15 02:19:26;;;;;;;;;;;;;;;6.61;69.32;99438.19;4877944;29;19927;-76
2021/10/15 02:21:52;;;;;;;;;;;;;;;6.63;69.54;99451.09;4895212;29;19966;-77
2021/10/15 02:24:18;;;;;;;;;;;;;;;6.67;69.65;99449.41;4894515;29;19946;-78
2021/10/15 02:26:43;;;;;;;;;;;;;;;6.61;69.27;99455.44;4877022;29;19927;-77
2021/10/15 02:29:09;;;;;;;;;;;;;;;6.55;69.96;99460.59;4877581;29;20016;-76
2021/10/15 02:31:36;;;;;;;;;;;;;;;6.53;70.17;99465.72;4878580;29;20551;-77
2021/10/15 02:34:02;;;;;;;;;;;;;;;6.52;69.41;99458.84;4863647;29;19930;-77
2021/10/15 02:36:28;;;;;;;;;;;;;;;6.51;69.69;99458.84;4893919;29;19930;-76
2021/10/15 02:38:53;;;;;;;;;;;;;;;6.52;69.80;99464.00;4880487;29;19969;-77
2021/10/15 02:41:19;;;;;;;;;;;;;;;6.55;69.73;99465.75;4898428;29;19931;-76
2021/10/15 02:43:45;;;;;;;;;;;;;;;6.59;69.78;99463.16;4882092;29;19920;-76
2021/10/15 02:46:15;;;;;;;;;;;;;;;6.63;69.57;99471.78;4876574;29;19928;-77
2021/10/15 02:48:40;;;;;;;;;;;;;;;6.70;69.80;99480.44;4861267;29;19967;-76
2021/10/15 02:51:06;;;;;;;;;;;;;;;6.71;69.60;99477.84;4876406;29;19970;-77
2021/10/15 02:53:31;;;;;;;;;;;;;;;6.68;69.74;99483.00;4892116;29;20359;-77
2021/10/15 02:55:57;;;;;;;;;;;;;;;6.71;69.99;99485.59;4893949;29;19928;-76
2021/10/15 02:58:23;;;;;;;;;;;;;;;6.72;69.26;99495.09;4863954;29;19930;-77
2021/10/15 03:00:50;;;;;;;;;;;;;;;6.72;69.54;99486.47;4889206;29;19923;-77
2021/10/15 03:03:16;;;;;;;;;;;;;;;6.74;69.39;99484.72;4874736;29;19931;-78
2021/10/15 03:05:42;;;;;;;;;;;;;;;6.78;69.69;99496.81;4865462;29;20390;-76
2021/10/15 03:08:08;;;;;;;;;;;;;;;6.82;69.80;99497.69;4897760;29;19970;-79
2021/10/15 03:10:35;;;;;;;;;;;;;;;6.84;69.64;99506.34;4899189;29;19924;-81
2021/10/15 03:13:01;;;;;;;;;;;;;;;6.86;69.70;99502.88;4899675;29;20262;-80
2021/10/15 03:15:27;;;;;;;;;;;;;;;6.84;69.02;99509.75;4880889;29;19935;-78
2021/10/15 03:17:52;;;;;;;;;;;;;;;6.86;69.98;99517.50;4890127;29;20239;-76
2021/10/15 03:20:18;;;;;;;;;;;;;;;6.84;68.91;99521.84;4902315;29;19928;-77
2021/10/15 03:22:44;;;;;;;;;;;;;;;6.82;69.73;99532.19;4891524;29;19908;-77
2021/10/15 03:25:10;;;;;;;;;;;;;;;6.82;69.44;99520.97;4905369;29;19953;-78
2021/10/15 03:27:35;;;;;;;;;;;;;;;6.79;69.65;99532.16;4895108;29;19926;-77
2021/10/15 03:30:03;;;;;;;;;;;;;;;6.81;69.75;99530.44;4880348;29;19940;-79
2021/10/15 03:32:29;;;;;;;;;;;;;;;6.86;69.56;99548.56;4839005;29;20030;-77
2021/10/15 03:34:54;;;;;;;;;;;;;;;6.88;69.54;99539.06;4881357;29;20412;-76
2021/10/15 03:37:20;;;;;;;;;;;;;;;6.89;68.99;99540.81;4882217;29;19980;-80
2021/10/15 03:39:45;;;;;;;;;;;;;;;6.88;69.53;99552.88;4879205;29;19926;-78
2021/10/15 03:42:11;;;;;;;;;;;;;;;6.87;69.37;99553.75;4855168;29;19928;-75
2021/10/15 03:44:36;;;;;;;;;;;;;;;6.91;69.81;99552.91;4877154;29;19934;-77
2021/10/15 03:47:02;;;;;;;;;;;;;;;6.96;69.25;99559.78;4878040;29;19935;-76
2021/10/15 03:49:28;;;;;;;;;;;;;;;6.91;68.91;99560.66;4888462;29;19923;-77
2021/10/15 03:51:54;;;;;;;;;;;;;;;6.90;69.35;99571.88;4872241;29;19924;-76
2021/10/15 03:54:19;;;;;;;;;;;;;;;6.87;69.01;99571.84;4878900;29;19980;-76
2021/10/15 03:56:45;;;;;;;;;;;;;;;6.87;69.50;99576.16;4877953;29;19924;-76
2021/10/15 03:59:10;;;;;;;;;;;;;;;6.86;69.01;99577.88;4883648;29;19928;-77
2021/10/15 04:01:36;;;;;;;;;;;;;;;6.86;69.14;99577.88;4866148;29;20384;-77
2021/10/15 04:04:04;;;;;;;;;;;;;;;6.83;68.71;99587.38;4863145;29;19923;-77
2021/10/15 04:06:29;;;;;;;;;;;;;;;6.83;68.92;99589.97;4867811;29;19928;-78
2021/10/15 04:08:55;;;;;;;;;;;;;;;6.84;69.21;99589.94;4893982;29;20017;-77
2021/10/15 04:11:21;;;;;;;;;;;;;;;6.86;69.36;99596.00;4877199;29;19990;-75
2021/10/15 04:13:46;;;;;;;;;;;;;;;6.88;69.27;99588.22;4885820;29;19934;-77
2021/10/15 04:16:12;;;;;;;;;;;;;;;6.84;68.88;99599.44;4876391;29;19923;-77
2021/10/15 04:18:37;;;;;;;;;;;;;;;6.86;69.58;99611.50;4883467;29;19927;-78
2021/10/15 04:21:03;;;;;;;;;;;;;;;6.89;68.79;99610.66;4869632;29;19924;-75
2021/10/15 04:23:29;;;;;;;;;;;;;;;6.89;68.71;99613.22;4889902;29;19971;-79
2021/10/15 04:25:54;;;;;;;;;;;;;;;6.85;69.00;99622.72;4897990;29;19931;-78
2021/10/15 04:28:23;;;;;;;;;;;;;;;6.83;68.85;99634.78;4896610;29;19927;-77
2021/10/15 04:30:48;;;;;;;;;;;;;;;6.87;69.22;99628.75;4892847;29;19923;-74
2021/10/15 04:33:16;;;;;;;;;;;;;;;6.86;69.20;99637.38;4894475;29;19928;-75
2021/10/15 04:35:42;;;;;;;;;;;;;;;6.92;69.36;99642.59;4899419;29;19924;-75
2021/10/15 04:38:08;;;;;;;;;;;;;;;6.84;68.41;99644.25;4893761;29;19928;-77
2021/10/15 04:40:33;;;;;;;;;;;;;;;6.75;68.86;99646.81;4891346;29;19931;-76
2021/10/15 04:42:59;;;;;;;;;;;;;;;6.70;68.70;99645.94;4888587;29;19924;-74
2021/10/15 04:45:28;;;;;;;;;;;;;;;6.65;68.74;99647.63;4879080;29;19928;-75
2021/10/15 04:47:54;;;;;;;;;;;;;;;6.54;68.56;99645.84;4873419;29;19930;-77
2021/10/15 04:50:19;;;;;;;;;;;;;;;6.53;69.00;99653.59;4875771;29;20350;-75
2021/10/15 04:52:45;;;;;;;;;;;;;;;6.44;68.79;99660.44;4876690;29;19924;-77
2021/10/15 04:55:10;;;;;;;;;;;;;;;6.43;68.94;99660.44;4859170;29;19935;-78
2021/10/15 04:57:36;;;;;;;;;;;;;;;6.43;68.89;99673.38;4874848;29;19924;-76
2021/10/15 05:00:03;;;;;;;;;;;;;;;6.45;69.46;99672.50;4875149;29;19924;-77
2021/10/15 05:02:29;;;;;;;;;;;;;;;6.50;69.07;99677.75;4875798;29;19946;-78
2021/10/15 05:04:54;;;;;;;;;;;;;;;6.55;68.94;99686.34;4875681;29;20300;-75
2021/10/15 05:07:23;;;;;;;;;;;;;;;6.64;69.47;99688.13;4874414;29;19928;-77
2021/10/15 05:09:49;;;;;;;;;;;;;;;6.67;69.21;99679.53;4859096;29;19928;-77
2021/10/15 05:12:14;;;;;;;;;;;;;;;6.61;68.91;99694.16;4881478;29;19930;-77
2021/10/15 05:14:41;;;;;;;;;;;;;;;6.57;68.94;99702.75;4893140;29;19934;-76
2021/10/15 05:17:06;;;;;;;;;;;;;;;6.55;68.77;99699.28;4895991;29;20329;-75
2021/10/15 05:19:32;;;;;;;;;;;;;;;6.59;69.44;99706.22;4875474;29;19924;-75
2021/10/15 05:21:58;;;;;;;;;;;;;;;6.58;68.69;99699.31;4875390;29;19928;-78
2021/10/15 05:24:24;;;;;;;;;;;;;;;6.58;69.66;99712.22;4875345;29;19923;-76
2021/10/15 05:26:49;;;;;;;;;;;;;;;6.56;69.17;99713.94;4875424;29;19931;-76
2021/10/15 05:29:15;;;;;;;;;;;;;;;6.52;68.86;99709.59;4859218;29;20014;-77
2021/10/15 05:31:42;;;;;;;;;;;;;;;6.52;69.34;99709.59;4875596;29;20373;-75
2021/10/15 05:34:07;;;;;;;;;;;;;;;6.60;69.78;99720.88;4860598;29;20767;-75
2021/10/15 05:36:36;;;;;;;;;;;;;;;6.65;69.29;99726.06;4859153;29;19977;-79
2021/10/15 05:39:07;;;;;;;;;;;;;;;6.65;69.59;99728.66;4889499;29;20074;-77
2021/10/15 05:41:32;;;;;;;;;;;;;;;6.61;69.12;99722.59;4876082;29;20044;-77
2021/10/15 05:43:58;;;;;;;;;;;;;;;6.57;68.94;99728.59;4875969;29;20071;-79
2021/10/15 05:46:23;;;;;;;;;;;;;;;6.54;69.08;99728.56;4858864;29;20269;-75
2021/10/15 05:48:49;;;;;;;;;;;;;;;6.50;69.36;99729.44;4859083;29;20031;-76
2021/10/15 05:51:15;;;;;;;;;;;;;;;6.48;69.44;99728.56;4875403;29;20342;-75
2021/10/15 05:53:40;;;;;;;;;;;;;;;6.52;69.34;99735.47;4875057;29;20410;-75
2021/10/15 05:58:53;;;;;;;;;;;;;;;6.56;69.39;99744.97;4864914;29;19923;-75
2021/10/15 06:01:22;;;;;;;;;;;;;;;6.59;69.66;99736.38;4879750;29;19924;-75
2021/10/15 06:04:57;;;;;;;;;;;;;;;6.61;69.39;99748.47;4883149;29;19947;-77
2021/10/15 06:14:43;;;;;;;;;;;;;;;6.69;69.17;99752.81;4868110;29;19924;-74
2021/10/15 06:17:15;;;;;;;;;;;;;;;6.63;68.97;99762.25;4860314;29;20022;-76
2021/10/15 06:19:52;;;;;;;;;;;;;;;6.67;69.14;99764.88;4859990;29;20367;-75
2021/10/15 06:22:22;;;;;;;;;;;;;;;6.69;68.99;99773.50;4867413;29;20448;-78
2021/10/15 06:24:49;;;;;;;;;;;;;;;6.65;68.75;99782.09;4876540;29;20338;-76
2021/10/15 06:27:16;;;;;;;;;;;;;;;6.72;69.36;99778.72;4875512;29;19939;-75
2021/10/15 06:29:42;;;;;;;;;;;;;;;6.86;69.95;99781.34;4873503;29;19928;-77
2021/10/15 06:32:08;;;;;;;;;;;;;;;6.99;69.43;99783.19;4873296;29;20439;-75
2021/10/15 06:34:34;;;;;;;;;;;;;;;7.09;69.01;99782.34;4878352;29;19924;-76
2021/10/15 06:36:59;;;;;;;;;;;;;;;7.17;69.10;99784.97;4877362;29;20396;-78
2021/10/15 06:39:25;;;;;;;;;;;;;;;7.20;68.56;99782.41;4880612;29;19923;-79
2021/10/15 06:41:50;;;;;;;;;;;;;;;7.37;68.51;99789.41;4879400;29;19932;-78
2021/10/15 06:44:19;;;;;;;;;;;;;;;7.57;68.77;99798.97;4863716;29;19931;-76
2021/10/15 06:46:44;;;;;;;;;;;;;;;7.76;68.78;99797.28;4878811;29;19927;-77
2021/10/15 06:49:10;;;;;;;;;;;;;;;8.07;68.61;99798.19;4863417;29;19931;-77
2021/10/15 06:51:36;;;;;;;;;;;;;;;8.28;68.08;99791.28;4878625;29;20413;-76
2021/10/15 06:54:02;;;;;;;;;;;;;;;8.43;67.46;99795.63;4880227;29;19923;-76
2021/10/15 06:56:29;;;;;;;;;;;;;;;8.47;67.14;99797.34;4868601;29;19928;-76
2021/10/15 06:58:55;;;;;;;;;;;;;;;8.48;66.71;99806.00;4884224;29;19930;-77
2021/10/15 07:01:21;;;;;;;;;;;;;;;8.55;66.23;99793.06;4878393;29;19928;-76
2021/10/15 07:03:46;;;;;;;;;;;;;;;8.70;66.41;99809.47;4888403;29;20078;-76
2021/10/15 07:06:12;;;;;;;;;;;;;;;8.85;66.40;99798.22;4900184;29;19916;-75
2021/10/15 07:08:37;;;;;;;;;;;;;;;8.92;65.94;99797.34;4885884;29;19937;-76
2021/10/15 07:11:03;;;;;;;;;;;;;;;8.99;66.21;99804.22;4863374;29;19923;-77
2021/10/15 07:13:28;;;;;;;;;;;;;;;9.09;65.49;99812.00;4875898;29;19923;-76
2021/10/15 07:15:54;;;;;;;;;;;;;;;9.02;65.25;99819.81;4877527;29;20005;-77
2021/10/15 07:18:19;;;;;;;;;;;;;;;8.96;65.13;99819.81;4876976;29;20384;-75
2021/10/15 07:20:45;;;;;;;;;;;;;;;8.93;65.16;99825.03;4876194;29;19923;-77
2021/10/15 07:23:12;;;;;;;;;;;;;;;8.72;64.68;99811.19;4876471;29;20054;-77
2021/10/15 07:25:38;;;;;;;;;;;;;;;8.64;64.81;99822.44;4878221;29;19995;-76
2021/10/15 07:28:05;;;;;;;;;;;;;;;8.60;64.72;99829.38;4880985;29;20566;-75
2021/10/15 07:30:31;;;;;;;;;;;;;;;8.60;64.74;99839.75;4871572;29;19936;-76
2021/10/15 07:32:57;;;;;;;;;;;;;;;8.59;64.76;99838.03;4879648;29;19924;-75
2021/10/15 07:35:23;;;;;;;;;;;;;;;8.64;64.93;99843.19;4845716;29;19959;-76
2021/10/15 07:37:48;;;;;;;;;;;;;;;8.64;64.57;99838.88;4876972;29;20022;-77
2021/10/15 07:40:14;;;;;;;;;;;;;;;8.74;64.48;99855.31;4882902;29;20482;-76
2021/10/15 07:42:39;;;;;;;;;;;;;;;8.82;64.61;99839.75;4876170;29;19924;-76
2021/10/15 07:45:05;;;;;;;;;;;;;;;8.98;64.17;99844.03;4876864;29;20308;-77
2021/10/15 07:47:31;;;;;;;;;;;;;;;9.11;64.55;99847.47;4877927;29;19935;-77
2021/10/15 07:49:57;;;;;;;;;;;;;;;9.29;63.84;99856.06;4876766;29;20007;-76
2021/10/15 07:52:22;;;;;;;;;;;;;;;9.56;63.64;99855.16;4876738;29;20299;-75
2021/10/15 07:54:48;;;;;;;;;;;;;;;9.62;63.11;99854.25;4875275;29;19928;-76
2021/10/15 07:57:14;;;;;;;;;;;;;;;9.77;63.21;99858.53;4853151;29;20396;-75
2021/10/15 07:59:40;;;;;;;;;;;;;;;9.81;62.77;99855.03;4876838;29;19923;-76
2021/10/15 08:02:05;;;;;;;;;;;;;;;9.88;62.42;99856.72;4877609;29;19923;-76
2021/10/15 08:04:31;;;;;;;;;;;;;;;9.97;62.69;99862.75;4876129;29;19928;-76
2021/10/15 08:06:56;;;;;;;;;;;;;;;10.14;62.12;99860.91;4876160;29;19927;-76
2021/10/15 08:09:22;;;;;;;;;;;;;;;10.33;61.82;99866.00;4874928;29;19931;-75
2021/10/15 08:11:49;;;;;;;;;;;;;;;10.51;61.89;99863.28;4874862;29;19923;-77
2021/10/15 08:14:14;;;;;;;;;;;;;;;10.66;62.08;99872.72;4882295;29;19930;-77
2021/10/15 08:16:43;;;;;;;;;;;;;;;10.91;60.79;99877.72;4860247;29;19974;-76
2021/10/15 08:19:11;;;;;;;;;;;;;;;10.98;60.92;99871.59;4860398;29;19935;-77
2021/10/15 08:21:46;;;;;;;;;;;;;;;11.12;60.50;99873.19;4877772;29;19962;-74
2021/10/15 08:24:14;;;;;;;;;;;;;;;11.35;60.50;99874.69;4869304;29;20576;-74
2021/10/15 08:26:56;;;;;;;;;;;;;;;;;;;;;
2021/10/15 08:29:31;;;;;;;;;;;;;;;11.41;59.49;99875.47;4876054;29;19933;-77
2021/10/15 08:31:57;;;;;;;;;;;;;;;11.40;58.33;99881.56;4880185;29;19931;-74
2021/10/15 08:34:24;;;;;;;;;;;;;;;11.28;58.68;99886.91;4875343;29;19924;-77
2021/10/15 08:36:53;;;;;;;;;;;;;;;11.35;58.85;99885.97;4875706;29;19931;-77
2021/10/15 08:39:22;;;;;;;;;;;;;;;11.38;58.22;99892.91;4877889;29;19924;-78
2021/10/15 08:41:47;;;;;;;;;;;;;;;11.45;58.17;99892.81;4876130;29;20352;-78
2021/10/15 08:44:14;;;;;;;;;;;;;;;11.43;58.03;99897.16;4876072;29;19924;-77
2021/10/15 08:46:44;;;;;;;;;;;;;;;11.40;58.42;99899.81;4860553;29;19930;-78
2021/10/15 08:49:12;;;;;;;;;;;;;;;11.53;57.50;99895.31;4880617;29;19938;-77
2021/10/15 08:51:44;;;;;;;;;;;;;;;11.56;57.12;99895.28;4848510;29;19927;-76
2021/10/15 08:54:12;;;;;;;;;;;;;;;11.67;57.23;99895.16;4884233;29;19923;-77
2021/10/15 08:56:40;;;;;;;;;;;;;;;11.63;56.28;99900.44;4897230;29;19936;-77
2021/10/15 08:59:09;;;;;;;;;;;;;;;11.60;56.55;99910.00;4892993;29;19976;-76
2021/10/15 09:01:44;;;;;;;;;;;;;;;11.41;56.08;99896.31;4878232;29;20404;-77
2021/10/15 09:04:11;;;;;;;;;;;;;;;11.10;56.73;99904.47;4876377;29;19924;-77
2021/10/15 09:06:39;;;;;;;;;;;;;;;10.97;56.71;99903.72;4873988;29;19940;-77
2021/10/15 09:09:05;;;;;;;;;;;;;;;10.74;56.98;99864.84;4860819;29;20039;-76
2021/10/15 09:11:36;;;;;;;;;;;;;;;10.87;56.34;99914.22;4876641;29;20026;-79
2021/10/15 09:14:16;;;;;;;;;;;;;;;10.71;56.12;99901.28;4870726;29;20333;-79
2021/10/15 09:16:58;;;;;;;;;;;;;;;10.60;56.14;99916.16;4872790;29;19978;-78
2021/10/15 09:19:31;;;;;;;;;;;;;;;10.51;55.92;99914.47;4874194;29;19967;-76
2021/10/15 09:22:09;;;;;;;;;;;;;;;10.40;56.06;99922.34;4875632;29;20362;-77
2021/10/15 09:24:40;;;;;;;;;;;;;;;10.34;56.56;99922.34;4874399;29;20022;-78
2021/10/15 09:27:14;;;;;;;;;;;;;;;10.42;56.52;99931.00;4858739;29;20019;-78
2021/10/15 09:30:12;;;;;;;;;;;;;;;10.52;56.70;99930.06;4882256;29;19934;-77
2021/10/15 09:32:42;;;;;;;;;;;;;;;10.40;56.02;99933.59;4882632;29;19924;-78
2021/10/15 09:35:08;;;;;;;;;;;;;;;10.30;56.45;99937.13;4860701;29;19991;-77
2021/10/15 09:37:36;;;;;;;;;;;;;;;10.29;56.26;99937.09;4862189;29;20287;-78
2021/10/15 09:40:06;;;;;;;;;;;;;;;10.28;55.87;99930.16;4893223;29;20395;-77
2021/10/15 09:42:33;;;;;;;;;;;;;;;10.29;56.08;99931.91;4876301;29;19923;-78
2021/10/15 09:45:04;;;;;;;;;;;;;;;10.20;56.58;99928.50;4877536;29;19930;-78
2021/10/15 09:47:30;;;;;;;;;;;;;;;10.20;56.19;99938.91;4875868;29;20021;-79
2021/10/15 09:49:57;;;;;;;;;;;;;;;10.31;56.41;99944.03;4876893;29;19930;-75
2021/10/15 09:52:35;;;;;;;;;;;;;;;10.38;56.65;99945.75;4876468;29;20379;-76
2021/10/15 09:55:03;;;;;;;;;;;;;;;10.53;56.37;99942.19;4892889;29;19935;-77
2021/10/15 09:57:48;;;;;;;;;;;;;;;10.61;56.32;99949.09;4869203;29;20022;-76
2021/10/15 10:00:15;;;;;;;;;;;;;;;10.42;55.47;99951.81;4887058;29;19947;-77
2021/10/15 10:02:41;;;;;;;;;;;;;;;10.35;56.18;99947.47;4879999;29;19928;-77
2021/10/15 10:05:13;;;;;;;;;;;;;;;10.42;56.30;99949.22;4880719;29;19930;-76
2021/10/15 10:07:49;;;;;;;;;;;;;;;10.37;55.87;99953.53;4862795;29;19931;-75
2021/10/15 10:10:16;;;;;;;;;;;;;;;10.27;55.99;99955.31;4882640;29;20268;-79
2021/10/15 10:12:42;;;;;;;;;;;;;;;10.25;56.67;99957.06;4894204;29;20285;-78
2021/10/15 10:15:09;;;;;;;;;;;;;;;10.42;56.33;99956.13;4861788;29;19945;-77
2021/10/15 10:17:56;;;;;;;;;;;;;;;10.81;57.03;99954.19;4876331;29;19951;-77
2021/10/15 10:20:33;;;;;;;;;;;;;;;11.11;56.28;99953.06;4894221;29;19964;-78
2021/10/15 10:23:07;;;;;;;;;;;;;;;11.15;56.10;99943.47;4885620;29;19931;-78
2021/10/15 10:25:35;;;;;;;;;;;;;;;11.09;55.72;99940.91;4872015;29;19931;-78
2021/10/15 10:28:17;;;;;;;;;;;;;;;11.17;55.96;99941.72;4879698;29;19931;-77
2021/10/15 10:30:47;;;;;;;;;;;;;;;11.53;55.94;99943.97;4868709;29;19928;-77
2021/10/15 10:33:19;;;;;;;;;;;;;;;11.54;55.79;99946.56;4871676;29;19931;-77
2021/10/15 10:35:48;;;;;;;;;;;;;;;11.50;55.62;99941.41;4884189;29;19924;-79
2021/10/15 10:38:25;;;;;;;;;;;;;;;11.32;55.12;99940.72;4862059;29;19923;-76
2021/10/15 10:41:02;;;;;;;;;;;;;;;11.33;55.56;99952.88;4879084;29;19924;-78
2021/10/15 10:43:29;;;;;;;;;;;;;;;11.30;54.91;99942.47;4882543;29;19980;-78
2021/10/15 10:46:10;;;;;;;;;;;;;;;11.30;55.43;99948.53;4891314;29;19928;-77
2021/10/15 10:48:45;;;;;;;;;;;;;;;11.30;55.46;99945.06;4895979;29;19948;-77
2021/10/15 10:51:14;;;;;;;;;;;;;;;11.14;55.60;99946.94;4851231;29;19924;-77
2021/10/15 10:53:58;;;;;;;;;;;;;;;11.00;55.58;99944.47;4885457;29;19930;-77
2021/10/15 10:56:37;;;;;;;;;;;;;;;10.98;55.34;99939.28;4866678;29;20087;-78
2021/10/15 10:59:18;;;;;;;;;;;;;;;10.97;55.98;99947.97;4862863;29;19931;-77
2021/10/15 11:01:54;;;;;;;;;;;;;;;10.93;55.54;99955.78;4858560;29;19924;-78
2021/10/15 11:04:36;;;;;;;;;;;;;;;10.89;55.63;99959.31;4852196;29;19931;-77
2021/10/15 11:07:02;;;;;;;;;;;;;;;10.83;55.71;99957.59;4878133;29;19999;-77
2021/10/15 11:09:46;;;;;;;;;;;;;;;10.84;56.17;99952.41;4877508;29;19967;-77
2021/10/15 11:12:14;;;;;;;;;;;;;;;10.81;55.52;99955.03;4852422;29;20279;-78
2021/10/15 11:14:56;;;;;;;;;;;;;;;10.66;55.03;99956.00;4858686;29;19924;-78
2021/10/15 11:17:47;;;;;;;;;;;;;;;10.52;55.46;99958.69;4873988;29;19924;-77
2021/10/15 11:20:19;;;;;;;;;;;;;;;10.52;55.54;99963.03;4879070;29;20383;-79
2021/10/15 11:22:48;;;;;;;;;;;;;;;10.56;55.36;99959.53;4879123;29;20296;-77
2021/10/15 11:25:14;;;;;;;;;;;;;;;10.75;55.76;99962.88;4862789;29;19924;-78
2021/10/15 11:27:41;;;;;;;;;;;;;;;10.95;54.92;99949.72;4878554;29;19934;-77
2021/10/15 11:30:11;;;;;;;;;;;;;;;11.03;54.73;99960.06;4888202;29;19931;-76
2021/10/15 11:32:44;;;;;;;;;;;;;;;10.99;55.03;99963.56;4903012;29;20349;-79
2021/10/15 11:35:34;;;;;;;;;;;;;;;11.06;54.54;99960.03;4880127;29;19931;-76
2021/10/15 11:38:00;;;;;;;;;;;;;;;11.04;54.43;99966.13;4900215;29;19924;-77
2021/10/15 11:40:33;;;;;;;;;;;;;;;10.95;54.30;99956.66;4882532;29;19927;-76
2021/10/15 11:43:32;;;;;;;;;;;;;;;10.88;53.55;99955.00;4880317;29;20273;-76
2021/10/15 11:45:58;;;;;;;;;;;;;;;10.73;52.77;99950.75;4888246;29;20006;-79
2021/10/15 11:48:34;;;;;;;;;;;;;;;10.63;53.49;99960.38;4869570;29;19933;-77
2021/10/15 11:51:04;;;;;;;;;;;;;;;10.63;52.86;99971.63;4881083;29;19923;-77
2021/10/15 11:53:41;;;;;;;;;;;;;;;10.48;52.30;99969.13;4879514;29;19946;-77
2021/10/15 11:56:09;;;;;;;;;;;;;;;10.35;52.76;99963.97;4895355;29;19923;-79
2021/10/15 11:58:38;;;;;;;;;;;;;;;10.30;52.57;99972.66;4887236;29;19931;-79
2021/10/15 12:01:10;;;;;;;;;;;;;;;10.32;51.80;99961.38;4896269;29;20430;-79
2021/10/15 12:03:38;;;;;;;;;;;;;;;10.24;51.65;99968.34;4864151;29;19951;-78
2021/10/15 12:06:27;;;;;;;;;;;;;;;10.23;52.24;99972.69;4879282;29;19927;-80
2021/10/15 12:09:00;;;;;;;;;;;;;;;10.22;51.95;99973.56;4897761;29;19927;-78
2021/10/15 12:11:41;;;;;;;;;;;;;;;10.22;51.28;99970.09;4893074;29;19962;-78
2021/10/15 12:14:23;;;;;;;;;;;;;;;10.17;51.66;99964.91;4885309;29;19930;-78
2021/10/15 12:16:51;;;;;;;;;;;;;;;10.16;51.09;99975.31;4886515;29;19965;-79
2021/10/15 12:19:25;;;;;;;;;;;;;;;10.22;51.17;99978.78;4901594;29;19946;-79
2021/10/15 12:21:55;;;;;;;;;;;;;;;10.31;51.05;99979.56;4881172;29;20590;-76
2021/10/15 12:24:41;;;;;;;;;;;;;;;10.35;51.02;99979.56;4878796;29;19979;-77
2021/10/15 12:27:13;;;;;;;;;;;;;;;10.33;51.00;99975.22;4895929;29;19931;-78
2021/10/15 12:29:44;;;;;;;;;;;;;;;10.34;50.49;99975.25;4880240;29;20026;-78
2021/10/15 12:32:13;;;;;;;;;;;;;;;10.29;50.13;99970.91;4873107;29;19939;-78
2021/10/15 12:35:00;;;;;;;;;;;;;;;10.20;50.52;99970.09;4898274;29;20341;-77
2021/10/15 12:38:09;;;;;;;;;;;;;;;10.17;50.61;99977.91;4900125;29;19924;-78
2021/10/15 12:40:39;;;;;;;;;;;;;;;10.08;50.07;99977.94;4895077;29;19950;-77
2021/10/15 12:43:16;;;;;;;;;;;;;;;10.08;50.03;99981.44;4899462;29;19927;-78
2021/10/15 12:46:04;;;;;;;;;;;;;;;10.00;50.16;99982.31;4883344;29;19931;-77
2021/10/15 12:48:33;;;;;;;;;;;;;;;9.87;50.25;99982.34;4849901;29;19966;-78
2021/10/15 12:51:13;;;;;;;;;;;;;;;9.74;49.99;99983.25;4880150;29;19923;-77
2021/10/15 12:53:45;;;;;;;;;;;;;;;9.60;50.45;99981.53;4880097;29;19927;-76
2021/10/15 12:56:15;;;;;;;;;;;;;;;9.67;50.78;99973.75;4880202;29;20375;-76
2021/10/15 12:58:47;;;;;;;;;;;;;;;9.69;50.90;99980.69;4903066;29;20001;-78
2021/10/15 13:01:22;;;;;;;;;;;;;;;9.77;50.52;99975.47;4866825;29;20383;-77
2021/10/15 13:03:54;;;;;;;;;;;;;;;9.79;50.68;99981.53;4855784;29;19947;-75
2021/10/15 13:06:22;;;;;;;;;;;;;;;9.76;50.78;99981.53;4894166;29;19947;-78
2021/10/15 13:08:57;;;;;;;;;;;;;;;9.81;50.90;99985.00;4877718;29;19923;-78
2021/10/15 13:11:26;;;;;;;;;;;;;;;9.80;49.90;99980.66;4855150;29;19927;-77
2021/10/15 13:13:52;;;;;;;;;;;;;;;9.73;50.42;99981.53;4870560;29;19927;-78
2021/10/15 13:16:18;;;;;;;;;;;;;;;9.64;50.46;99988.47;4875837;29;19923;-76